createdAt,value
2023-04-24T00:00:18.852Z,43.61
2023-04-24T00:00:53.896Z,43.52
2023-04-24T00:01:26.341Z,43.29
2023-04-24T00:01:59.678Z,43.56
2023-04-24T00:02:35.593Z,43.59
2023-04-24T00:03:09.265Z,43.21
2023-04-24T00:03:42.438Z,43.30
2023-04-24T00:04:18.592Z,43.50
2023-04-24T00:04:51.252Z,43.42
2023-04-24T00:05:23.810Z,43.67
2023-04-24T00:06:00.288Z,43.23
2023-04-24T00:06:34.930Z,43.45
2023-04-24T00:07:07.920Z,43.67
2023-04-24T00:07:42.884Z,43.29
2023-04-24T00:08:15.219Z,43.23
2023-04-24T00:08:47.582Z,43.47
2023-04-24T00:09:22.557Z,43.58
2023-04-24T00:09:55.497Z,43.40
2023-04-24T00:10:27.822Z,43.62
2023-04-24T00:11:02.795Z,43.30
2023-04-24T00:11:35.142Z,43.45
2023-04-24T00:12:07.485Z,43.21
2023-04-24T00:12:42.989Z,43.48
2023-04-24T00:13:15.463Z,43.32
2023-04-24T00:13:47.822Z,43.28
2023-04-24T00:14:25.733Z,43.30
2023-04-24T00:14:58.106Z,43.35
2023-04-24T00:15:30.638Z,43.37
2023-04-24T00:16:06.500Z,43.55
2023-04-24T00:16:38.994Z,43.08
2023-04-24T00:17:11.358Z,43.39
2023-04-24T00:17:46.434Z,43.57
2023-04-24T00:18:18.916Z,43.13
2023-04-24T00:18:53.891Z,43.09
2023-04-24T00:19:28.894Z,43.25
2023-04-24T00:20:02.131Z,43.04
2023-04-24T00:20:34.702Z,43.34
2023-04-24T00:21:09.697Z,43.18
2023-04-24T00:21:42.275Z,43.04
2023-04-24T00:22:14.679Z,43.42
2023-04-24T00:22:49.643Z,42.97
2023-04-24T00:23:22.029Z,43.42
2023-04-24T00:23:54.432Z,43.28
2023-04-24T00:24:29.416Z,43.25
2023-04-24T00:25:01.770Z,43.52
2023-04-24T00:25:34.239Z,43.50
2023-04-24T00:26:10.201Z,43.16
2023-04-24T00:26:42.563Z,43.30
2023-04-24T00:27:14.910Z,43.04
2023-04-24T00:27:49.896Z,43.30
2023-04-24T00:28:22.226Z,43.19
2023-04-24T00:28:54.562Z,43.03
2023-04-24T00:29:32.222Z,43.42
2023-04-24T00:30:06.001Z,43.51
2023-04-24T00:30:38.418Z,43.04
2023-04-24T00:31:13.701Z,43.52
2023-04-24T00:31:46.081Z,43.52
2023-04-24T00:32:20.453Z,43.13
2023-04-24T00:32:58.214Z,43.53
2023-04-24T00:33:30.663Z,43.13
2023-04-24T00:34:03.424Z,43.43
2023-04-24T00:34:35.843Z,43.58
2023-04-24T00:35:11.554Z,43.04
2023-04-24T00:35:43.873Z,43.03
2023-04-24T00:36:17.363Z,43.30
2023-04-24T00:36:53.489Z,43.15
2023-04-24T00:37:26.557Z,43.03
2023-04-24T00:37:58.896Z,43.12
2023-04-24T00:38:33.868Z,43.34
2023-04-24T00:39:06.252Z,43.31
2023-04-24T00:39:38.727Z,43.16
2023-04-24T00:40:14.866Z,43.57
2023-04-24T00:40:49.003Z,43.22
2023-04-24T00:41:22.189Z,43.28
2023-04-24T00:41:57.981Z,43.01
2023-04-24T00:42:30.583Z,43.36
2023-04-24T00:43:02.962Z,43.03
2023-04-24T00:43:38.282Z,43.04
2023-04-24T00:44:10.674Z,43.03
2023-04-24T00:44:45.669Z,43.13
2023-04-24T00:45:20.630Z,43.51
2023-04-24T00:45:53.049Z,43.34
2023-04-24T00:46:25.580Z,43.43
2023-04-24T00:46:58.425Z,42.94
2023-04-24T00:47:33.966Z,43.30
2023-04-24T00:48:06.482Z,43.01
2023-04-24T00:48:39.493Z,43.29
2023-04-24T00:49:15.150Z,43.28
2023-04-24T00:49:47.485Z,43.13
2023-04-24T00:50:20.752Z,43.01
2023-04-24T00:50:55.871Z,43.43
2023-04-24T00:51:28.641Z,43.16
2023-04-24T00:52:01.026Z,43.44
2023-04-24T00:52:36.351Z,42.95
2023-04-24T00:53:09.002Z,42.94
2023-04-24T00:53:41.418Z,43.24
2023-04-24T00:54:16.568Z,43.30
2023-04-24T00:54:48.946Z,43.11
2023-04-24T00:55:21.520Z,43.31
2023-04-24T00:55:54.070Z,43.00
2023-04-24T00:56:29.280Z,43.29
2023-04-24T00:57:02.554Z,43.13
2023-04-24T00:57:34.904Z,43.02
2023-04-24T00:58:09.878Z,43.45
2023-04-24T00:58:42.961Z,42.96
2023-04-24T00:59:17.843Z,43.00
2023-04-24T00:59:55.850Z,43.19
2023-04-24T01:00:28.394Z,43.06
2023-04-24T01:01:02.199Z,42.94
2023-04-24T01:01:39.383Z,43.05
2023-04-24T01:02:12.264Z,43.02
2023-04-24T01:02:46.634Z,43.23
2023-04-24T01:03:22.435Z,43.32
2023-04-24T01:03:55.469Z,43.16
2023-04-24T01:04:28.699Z,43.37
2023-04-24T01:05:04.839Z,43.01
2023-04-24T01:05:37.250Z,43.16
2023-04-24T01:06:10.617Z,43.44
2023-04-24T01:06:47.410Z,43.20
2023-04-24T01:07:22.261Z,43.42
2023-04-24T01:07:57.253Z,43.35
2023-04-24T01:08:32.733Z,43.23
2023-04-24T01:09:05.381Z,43.21
2023-04-24T01:09:38.083Z,43.24
2023-04-24T01:10:13.932Z,43.26
2023-04-24T01:10:46.338Z,43.20
2023-04-24T01:11:19.405Z,43.23
2023-04-24T01:11:54.827Z,42.99
2023-04-24T01:12:27.216Z,43.21
2023-04-24T01:12:59.908Z,43.20
2023-04-24T01:13:35.677Z,43.09
2023-04-24T01:14:09.177Z,43.16
2023-04-24T01:14:41.586Z,43.37
2023-04-24T01:15:19.448Z,43.45
2023-04-24T01:15:52.886Z,43.49
2023-04-24T01:16:25.347Z,43.13
2023-04-24T01:17:00.585Z,43.20
2023-04-24T01:17:33.952Z,43.32
2023-04-24T01:18:06.384Z,43.23
2023-04-24T01:18:42.310Z,43.21
2023-04-24T01:19:16.691Z,43.16
2023-04-24T01:19:49.070Z,43.26
2023-04-24T01:20:22.999Z,43.02
2023-04-24T01:21:00.792Z,43.24
2023-04-24T01:21:36.414Z,42.98
2023-04-24T01:22:15.822Z,43.25
2023-04-24T01:22:50.878Z,43.56
2023-04-24T01:23:23.234Z,43.26
2023-04-24T01:23:57.670Z,43.04
2023-04-24T01:24:33.137Z,43.24
2023-04-24T01:25:06.947Z,43.28
2023-04-24T01:25:39.536Z,43.28
2023-04-24T01:26:14.908Z,43.00
2023-04-24T01:26:47.308Z,43.29
2023-04-24T01:27:20.228Z,43.10
2023-04-24T01:27:55.261Z,43.19
2023-04-24T01:28:27.751Z,43.23
2023-04-24T01:29:00.166Z,43.25
2023-04-24T01:29:32.702Z,43.41
2023-04-24T01:30:09.250Z,43.33
2023-04-24T01:30:41.787Z,42.96
2023-04-24T01:31:14.269Z,43.38
2023-04-24T01:31:46.781Z,42.91
2023-04-24T01:32:22.551Z,43.37
2023-04-24T01:32:55.293Z,43.39
2023-04-24T01:33:27.774Z,43.01
2023-04-24T01:34:00.283Z,43.18
2023-04-24T01:34:35.879Z,43.04
2023-04-24T01:35:09.568Z,42.85
2023-04-24T01:35:41.918Z,42.99
2023-04-24T01:36:17.966Z,43.23
2023-04-24T01:36:50.336Z,43.19
2023-04-24T01:37:25.468Z,43.08
2023-04-24T01:38:00.759Z,43.16
2023-04-24T01:38:33.200Z,42.87
2023-04-24T01:39:05.883Z,43.30
2023-04-24T01:39:41.025Z,43.28
2023-04-24T01:40:13.762Z,43.05
2023-04-24T01:40:46.486Z,43.25
2023-04-24T01:41:21.465Z,43.30
2023-04-24T01:41:54.824Z,42.82
2023-04-24T01:42:27.376Z,43.20
2023-04-24T01:42:59.958Z,43.16
2023-04-24T01:43:35.238Z,42.76
2023-04-24T01:44:07.681Z,42.97
2023-04-24T01:44:41.791Z,43.03
2023-04-24T01:45:14.213Z,43.22
2023-04-24T01:45:49.214Z,43.04
2023-04-24T01:46:21.873Z,43.04
2023-04-24T01:46:55.239Z,43.06
2023-04-24T01:47:30.701Z,42.68
2023-04-24T01:48:03.574Z,42.72
2023-04-24T01:48:36.442Z,43.20
2023-04-24T01:49:11.469Z,42.93
2023-04-24T01:49:44.838Z,43.27
2023-04-24T01:50:18.720Z,43.02
2023-04-24T01:50:53.698Z,42.99
2023-04-24T01:51:26.120Z,43.24
2023-04-24T01:51:58.498Z,42.72
2023-04-24T01:52:37.264Z,43.24
2023-04-24T01:53:09.783Z,42.98
2023-04-24T01:53:42.273Z,43.16
2023-04-24T01:54:16.611Z,42.77
2023-04-24T01:54:51.588Z,43.08
2023-04-24T01:55:24.081Z,42.77
2023-04-24T01:55:57.421Z,42.94
2023-04-24T01:56:34.155Z,43.04
2023-04-24T01:57:07.001Z,43.08
2023-04-24T01:57:39.804Z,42.99
2023-04-24T01:58:14.789Z,42.82
2023-04-24T01:58:47.368Z,43.29
2023-04-24T01:59:20.432Z,43.19
2023-04-24T01:59:55.497Z,42.79
2023-04-24T02:00:27.850Z,43.14
2023-04-24T02:01:00.434Z,43.23
2023-04-24T02:01:38.916Z,43.23
2023-04-24T02:02:11.410Z,43.20
2023-04-24T02:02:47.395Z,43.19
2023-04-24T02:03:23.486Z,42.95
2023-04-24T02:03:56.189Z,43.03
2023-04-24T02:04:29.330Z,43.23
2023-04-24T02:05:04.590Z,42.96
2023-04-24T02:05:36.961Z,42.80
2023-04-24T02:06:09.386Z,42.98
2023-04-24T02:06:41.792Z,43.11
2023-04-24T02:07:16.741Z,43.15
2023-04-24T02:07:51.747Z,42.80
2023-04-24T02:08:24.460Z,43.25
2023-04-24T02:08:59.431Z,42.79
2023-04-24T02:09:31.799Z,43.19
2023-04-24T02:10:05.366Z,43.20
2023-04-24T02:10:37.936Z,42.76
2023-04-24T02:11:13.948Z,42.89
2023-04-24T02:11:46.310Z,42.79
2023-04-24T02:12:18.738Z,43.01
2023-04-24T02:12:53.719Z,42.75
2023-04-24T02:13:29.723Z,43.25
2023-04-24T02:14:02.093Z,43.06
2023-04-24T02:14:37.146Z,43.05
2023-04-24T02:15:10.555Z,42.91
2023-04-24T02:15:43.512Z,43.28
2023-04-24T02:16:18.503Z,43.12
2023-04-24T02:16:51.078Z,42.93
2023-04-24T02:17:23.848Z,42.97
2023-04-24T02:17:58.997Z,42.95
2023-04-24T02:18:31.410Z,43.27
2023-04-24T02:19:04.216Z,43.13
2023-04-24T02:19:39.198Z,43.05
2023-04-24T02:20:12.116Z,42.84
2023-04-24T02:20:44.543Z,43.05
2023-04-24T02:21:19.558Z,43.12
2023-04-24T02:21:51.935Z,42.86
2023-04-24T02:22:24.364Z,42.84
2023-04-24T02:23:02.007Z,42.89
2023-04-24T02:23:34.355Z,43.17
2023-04-24T02:24:06.846Z,42.82
2023-04-24T02:24:42.019Z,43.17
2023-04-24T02:25:14.368Z,42.84
2023-04-24T02:25:47.214Z,43.13
2023-04-24T02:26:22.282Z,43.12
2023-04-24T02:26:54.670Z,43.14
2023-04-24T02:27:27.163Z,43.19
2023-04-24T02:28:02.136Z,43.09
2023-04-24T02:28:34.504Z,43.30
2023-04-24T02:29:06.904Z,43.20
2023-04-24T02:29:42.016Z,43.31
2023-04-24T02:30:15.156Z,42.84
2023-04-24T02:30:47.534Z,42.82
2023-04-24T02:31:22.538Z,43.11
2023-04-24T02:31:55.038Z,43.11
2023-04-24T02:32:27.449Z,43.28
2023-04-24T02:33:02.441Z,42.91
2023-04-24T02:33:34.939Z,43.02
2023-04-24T02:34:10.012Z,43.27
2023-04-24T02:34:42.897Z,42.67
2023-04-24T02:35:15.295Z,42.87
2023-04-24T02:35:50.301Z,42.87
2023-04-24T02:36:22.687Z,43.04
2023-04-24T02:36:55.377Z,43.03
2023-04-24T02:37:30.714Z,42.87
2023-04-24T02:38:05.844Z,43.04
2023-04-24T02:38:38.238Z,43.20
2023-04-24T02:39:14.635Z,43.28
2023-04-24T02:39:47.076Z,43.13
2023-04-24T02:40:19.687Z,43.08
2023-04-24T02:40:55.501Z,43.06
2023-04-24T02:41:32.471Z,42.92
2023-04-24T02:42:05.133Z,42.89
2023-04-24T02:42:40.074Z,42.84
2023-04-24T02:43:12.450Z,43.10
2023-04-24T02:43:47.455Z,42.87
2023-04-24T02:44:19.870Z,43.11
2023-04-24T02:44:52.688Z,42.96
2023-04-24T02:45:27.713Z,42.97
2023-04-24T02:46:00.365Z,43.31
2023-04-24T02:46:32.927Z,42.86
2023-04-24T02:47:08.761Z,42.87
2023-04-24T02:47:41.161Z,42.83
2023-04-24T02:48:13.529Z,43.08
2023-04-24T02:48:48.673Z,43.34
2023-04-24T02:49:21.080Z,43.18
2023-04-24T02:49:53.474Z,43.11
2023-04-24T02:50:29.122Z,43.32
2023-04-24T02:51:01.549Z,43.30
2023-04-24T02:51:34.060Z,43.05
2023-04-24T02:52:09.014Z,43.35
2023-04-24T02:52:41.437Z,43.00
2023-04-24T02:53:16.641Z,42.95
2023-04-24T02:53:51.618Z,43.32
2023-04-24T02:54:23.968Z,42.89
2023-04-24T02:54:56.753Z,43.04
2023-04-24T02:55:31.974Z,43.12
2023-04-24T02:56:04.398Z,42.84
2023-04-24T02:56:36.811Z,43.04
2023-04-24T02:57:13.418Z,42.88
2023-04-24T02:57:48.144Z,43.32
2023-04-24T02:58:21.164Z,43.30
2023-04-24T02:58:56.234Z,42.78
2023-04-24T02:59:30.073Z,42.82
2023-04-24T03:00:02.494Z,43.25
2023-04-24T03:00:37.467Z,43.02
2023-04-24T03:01:11.293Z,43.11
2023-04-24T03:01:43.859Z,42.74
2023-04-24T03:02:18.985Z,43.18
2023-04-24T03:02:51.894Z,42.88
2023-04-24T03:03:25.225Z,42.94
2023-04-24T03:04:00.912Z,43.23
2023-04-24T03:04:33.659Z,42.70
2023-04-24T03:05:06.983Z,43.06
2023-04-24T03:05:42.017Z,42.89
2023-04-24T03:06:14.794Z,43.06
2023-04-24T03:06:47.342Z,42.94
2023-04-24T03:07:23.094Z,43.06
2023-04-24T03:07:55.484Z,42.85
2023-04-24T03:08:30.570Z,42.97
2023-04-24T03:09:06.445Z,43.05
2023-04-24T03:09:38.779Z,42.85
2023-04-24T03:10:11.605Z,42.82
2023-04-24T03:10:48.146Z,42.83
2023-04-24T03:11:21.195Z,42.87
2023-04-24T03:11:53.536Z,42.64
2023-04-24T03:12:28.525Z,42.79
2023-04-24T03:13:01.339Z,43.00
2023-04-24T03:13:36.486Z,42.85
2023-04-24T03:14:09.451Z,42.66
2023-04-24T03:14:43.859Z,42.98
2023-04-24T03:15:18.893Z,42.66
2023-04-24T03:15:51.878Z,43.19
2023-04-24T03:16:24.292Z,42.55
2023-04-24T03:16:59.239Z,42.57
2023-04-24T03:17:31.633Z,42.78
2023-04-24T03:18:04.232Z,42.72
2023-04-24T03:18:39.246Z,42.53
2023-04-24T03:19:13.850Z,42.77
2023-04-24T03:20:03.605Z,42.99
2023-04-24T03:20:39.128Z,42.58
2023-04-24T03:21:11.690Z,42.67
2023-04-24T03:21:44.430Z,42.99
2023-04-24T03:22:19.470Z,42.63
2023-04-24T03:22:51.956Z,42.73
2023-04-24T03:23:24.544Z,42.51
2023-04-24T03:24:02.444Z,42.50
2023-04-24T03:24:34.957Z,42.69
2023-04-24T03:25:10.348Z,42.67
2023-04-24T03:25:46.939Z,43.00
2023-04-24T03:26:19.450Z,42.72
2023-04-24T03:27:07.976Z,42.99
2023-04-24T03:27:58.958Z,42.92
2023-04-24T03:28:48.582Z,42.55
2023-04-24T03:29:21.031Z,43.06
2023-04-24T03:29:56.556Z,42.89
2023-04-24T03:30:37.319Z,42.86
2023-04-24T03:31:10.846Z,43.04
2023-04-24T03:31:43.949Z,42.87
2023-04-24T03:32:19.040Z,42.97
2023-04-24T03:32:52.989Z,42.75
2023-04-24T03:33:33.022Z,42.89
2023-04-24T03:34:07.275Z,42.58
2023-04-24T03:34:39.898Z,42.70
2023-04-24T03:35:18.807Z,42.87
2023-04-24T03:35:51.178Z,42.94
2023-04-24T03:36:27.265Z,42.67
2023-04-24T03:37:02.186Z,42.84
2023-04-24T03:37:36.756Z,43.07
2023-04-24T03:38:31.647Z,42.72
2023-04-24T03:39:09.875Z,42.84
2023-04-24T03:39:45.285Z,42.95
2023-04-24T03:40:21.740Z,42.67
2023-04-24T03:40:54.093Z,42.59
2023-04-24T03:41:52.210Z,42.55
2023-04-24T03:42:29.435Z,42.83
2023-04-24T03:43:02.390Z,42.67
2023-04-24T03:43:37.630Z,42.66
2023-04-24T03:44:11.117Z,42.79
2023-04-24T03:44:43.896Z,42.57
2023-04-24T03:45:18.873Z,42.87
2023-04-24T03:45:54.651Z,42.67
2023-04-24T03:46:28.206Z,42.63
2023-04-24T03:47:06.901Z,42.87
2023-04-24T03:47:39.647Z,43.00
2023-04-24T03:48:12.344Z,42.51
2023-04-24T03:48:47.550Z,43.01
2023-04-24T03:49:23.221Z,42.84
2023-04-24T03:49:56.997Z,42.53
2023-04-24T03:50:32.382Z,42.81
2023-04-24T03:51:05.530Z,42.87
2023-04-24T03:51:39.144Z,42.66
2023-04-24T03:52:25.185Z,42.60
2023-04-24T03:52:57.592Z,42.82
2023-04-24T03:53:40.347Z,42.53
2023-04-24T03:54:18.781Z,42.71
2023-04-24T03:54:51.664Z,42.97
2023-04-24T03:55:24.182Z,42.90
2023-04-24T03:55:59.190Z,42.96
2023-04-24T03:56:31.577Z,42.53
2023-04-24T03:57:07.075Z,42.50
2023-04-24T03:57:42.734Z,42.79
2023-04-24T03:58:23.750Z,42.72
2023-04-24T03:58:59.874Z,42.92
2023-04-24T03:59:32.293Z,42.83
2023-04-24T04:00:20.710Z,42.57
2023-04-24T04:00:59.636Z,42.79
2023-04-24T04:01:54.857Z,42.57
2023-04-24T04:02:27.334Z,42.94
2023-04-24T04:02:59.943Z,42.59
2023-04-24T04:03:35.395Z,42.42
2023-04-24T04:04:09.235Z,42.82
2023-04-24T04:04:45.899Z,42.58
2023-04-24T04:05:18.525Z,42.68
2023-04-24T04:05:50.940Z,42.93
2023-04-24T04:06:25.904Z,42.79
2023-04-24T04:07:02.448Z,42.67
2023-04-24T04:07:34.828Z,42.67
2023-04-24T04:08:09.927Z,42.34
2023-04-24T04:08:42.321Z,42.72
2023-04-24T04:09:18.529Z,42.75
2023-04-24T04:09:54.895Z,42.96
2023-04-24T04:10:30.447Z,42.85
2023-04-24T04:11:05.088Z,42.44
2023-04-24T04:11:40.532Z,42.84
2023-04-24T04:12:13.890Z,42.92
2023-04-24T04:12:46.352Z,42.42
2023-04-24T04:13:21.378Z,42.43
2023-04-24T04:13:53.756Z,42.72
2023-04-24T04:14:27.911Z,42.44
2023-04-24T04:15:02.936Z,42.72
2023-04-24T04:15:36.890Z,42.70
2023-04-24T04:16:10.268Z,42.81
2023-04-24T04:16:46.105Z,42.45
2023-04-24T04:17:19.201Z,42.71
2023-04-24T04:17:51.738Z,42.58
2023-04-24T04:18:26.715Z,42.43
2023-04-24T04:18:59.784Z,42.65
2023-04-24T04:19:32.202Z,42.67
2023-04-24T04:20:10.548Z,42.94
2023-04-24T04:20:44.568Z,42.50
2023-04-24T04:21:23.063Z,42.84
2023-04-24T04:22:00.420Z,42.55
2023-04-24T04:22:44.453Z,42.87
2023-04-24T04:23:23.626Z,42.93
2023-04-24T04:24:08.454Z,42.96
2023-04-24T04:24:47.473Z,42.47
2023-04-24T04:25:24.271Z,42.77
2023-04-24T04:25:58.045Z,42.89
2023-04-24T04:26:38.935Z,42.86
2023-04-24T04:27:17.808Z,42.85
2023-04-24T04:28:00.757Z,42.85
2023-04-24T04:28:33.700Z,42.50
2023-04-24T04:29:09.672Z,42.82
2023-04-24T04:29:46.053Z,42.84
2023-04-24T04:30:20.088Z,42.79
2023-04-24T04:31:04.604Z,42.40
2023-04-24T04:31:37.941Z,42.72
2023-04-24T04:32:14.772Z,42.65
2023-04-24T04:32:49.825Z,42.88
2023-04-24T04:33:22.248Z,42.62
2023-04-24T04:33:54.769Z,42.63
2023-04-24T04:34:30.918Z,42.87
2023-04-24T04:35:04.327Z,42.87
2023-04-24T04:35:38.300Z,42.59
2023-04-24T04:36:13.561Z,42.44
2023-04-24T04:36:51.481Z,42.73
2023-04-24T04:37:37.152Z,42.45
2023-04-24T04:38:24.424Z,42.38
2023-04-24T04:39:10.063Z,42.34
2023-04-24T04:40:07.910Z,42.84
2023-04-24T04:40:46.206Z,42.43
2023-04-24T04:41:22.046Z,42.79
2023-04-24T04:41:54.463Z,42.48
2023-04-24T04:42:33.834Z,42.70
2023-04-24T04:43:07.433Z,42.86
2023-04-24T04:43:51.132Z,42.72
2023-04-24T04:44:24.644Z,42.89
2023-04-24T04:44:58.591Z,42.58
2023-04-24T04:45:44.107Z,42.69
2023-04-24T04:46:39.711Z,42.69
2023-04-24T04:47:36.049Z,42.48
2023-04-24T04:48:10.174Z,42.48
2023-04-24T04:48:43.542Z,42.50
2023-04-24T04:49:18.709Z,42.77
2023-04-24T04:49:52.821Z,42.72
2023-04-24T04:50:28.750Z,42.70
2023-04-24T04:51:09.574Z,42.94
2023-04-24T04:51:43.216Z,42.90
2023-04-24T04:52:18.197Z,42.93
2023-04-24T04:52:55.862Z,42.95
2023-04-24T04:53:36.374Z,42.76
2023-04-24T04:54:09.016Z,42.55
2023-04-24T04:54:45.646Z,42.48
2023-04-24T04:55:21.043Z,42.61
2023-04-24T04:56:19.966Z,42.46
2023-04-24T04:56:52.555Z,42.65
2023-04-24T04:57:25.222Z,42.96
2023-04-24T04:58:01.513Z,42.60
2023-04-24T04:58:34.350Z,42.72
2023-04-24T04:59:07.630Z,42.49
2023-04-24T04:59:47.636Z,42.66
2023-04-24T05:00:30.115Z,42.97
2023-04-24T05:01:05.158Z,42.86
2023-04-24T05:01:42.677Z,42.73
2023-04-24T05:02:18.057Z,42.75
2023-04-24T05:02:53.247Z,42.77
2023-04-24T05:03:26.133Z,42.82
2023-04-24T05:04:07.000Z,42.94
2023-04-24T05:04:41.108Z,42.65
2023-04-24T05:05:13.602Z,42.71
2023-04-24T05:05:48.705Z,42.57
2023-04-24T05:06:24.551Z,42.65
2023-04-24T05:07:00.184Z,42.67
2023-04-24T05:07:35.587Z,43.08
2023-04-24T05:08:13.563Z,42.90
2023-04-24T05:08:58.376Z,42.93
2023-04-24T05:09:52.755Z,43.13
2023-04-24T05:10:31.824Z,42.94
2023-04-24T05:11:04.221Z,42.87
2023-04-24T05:11:37.983Z,42.89
2023-04-24T05:12:13.986Z,43.01
2023-04-24T05:12:54.177Z,42.75
2023-04-24T05:13:38.452Z,42.75
2023-04-24T05:14:20.243Z,42.75
2023-04-24T05:14:52.842Z,42.48
2023-04-24T05:15:25.253Z,42.53
2023-04-24T05:16:00.287Z,42.67
2023-04-24T05:16:33.138Z,42.89
2023-04-24T05:17:05.671Z,42.43
2023-04-24T05:17:41.798Z,42.66
2023-04-24T05:18:14.989Z,42.55
2023-04-24T05:18:47.379Z,42.96
2023-04-24T05:19:25.847Z,42.54
2023-04-24T05:19:58.262Z,42.96
2023-04-24T05:20:30.976Z,42.79
2023-04-24T05:21:06.427Z,42.41
2023-04-24T05:21:40.504Z,42.67
2023-04-24T05:22:14.040Z,42.44
2023-04-24T05:22:56.699Z,42.78
2023-04-24T05:23:30.550Z,42.87
2023-04-24T05:24:03.704Z,42.87
2023-04-24T05:24:53.391Z,42.92
2023-04-24T05:25:54.551Z,42.84
2023-04-24T05:26:29.912Z,43.01
2023-04-24T05:27:05.733Z,42.50
2023-04-24T05:27:47.828Z,42.70
2023-04-24T05:28:22.285Z,42.98
2023-04-24T05:29:10.000Z,42.78
2023-04-24T05:29:42.632Z,42.73
2023-04-24T05:30:18.434Z,42.89
2023-04-24T05:30:51.028Z,42.58
2023-04-24T05:31:27.666Z,42.63
2023-04-24T05:32:00.846Z,42.77
2023-04-24T05:32:38.243Z,42.95
2023-04-24T05:33:11.128Z,42.53
2023-04-24T05:33:43.802Z,42.47
2023-04-24T05:34:19.433Z,42.62
2023-04-24T05:34:55.790Z,42.54
2023-04-24T05:35:30.789Z,42.84
2023-04-24T05:36:03.277Z,42.41
2023-04-24T05:36:35.662Z,42.89
2023-04-24T05:37:11.199Z,42.89
2023-04-24T05:37:43.700Z,42.45
2023-04-24T05:38:19.062Z,42.88
2023-04-24T05:38:54.026Z,42.63
2023-04-24T05:39:26.423Z,42.38
2023-04-24T05:40:02.844Z,42.67
2023-04-24T05:40:35.678Z,42.65
2023-04-24T05:41:10.647Z,42.80
2023-04-24T05:41:45.937Z,42.38
2023-04-24T05:42:18.311Z,42.84
2023-04-24T05:42:50.667Z,42.82
2023-04-24T05:43:26.364Z,42.79
2023-04-24T05:43:58.720Z,42.52
2023-04-24T05:44:31.228Z,42.50
2023-04-24T05:45:09.321Z,42.32
2023-04-24T05:45:41.775Z,42.81
2023-04-24T05:46:14.198Z,42.35
2023-04-24T05:46:49.273Z,42.58
2023-04-24T05:47:23.321Z,42.53
2023-04-24T05:47:59.810Z,42.79
2023-04-24T05:48:32.299Z,42.82
2023-04-24T05:49:10.160Z,42.30
2023-04-24T05:49:42.860Z,42.47
2023-04-24T05:50:18.035Z,42.55
2023-04-24T05:50:50.458Z,42.71
2023-04-24T05:51:25.965Z,42.48
2023-04-24T05:51:58.937Z,42.49
2023-04-24T05:52:33.922Z,42.46
2023-04-24T05:53:11.806Z,42.49
2023-04-24T05:53:44.354Z,42.30
2023-04-24T05:54:20.268Z,42.40
2023-04-24T05:54:52.833Z,42.67
2023-04-24T05:55:29.602Z,42.53
2023-04-24T05:56:05.192Z,42.77
2023-04-24T05:56:43.006Z,42.55
2023-04-24T05:57:19.704Z,42.52
2023-04-24T05:57:59.175Z,42.68
2023-04-24T05:58:35.083Z,42.39
2023-04-24T05:59:08.637Z,42.40
2023-04-24T05:59:42.640Z,42.14
2023-04-24T06:00:20.695Z,42.67
2023-04-24T06:01:04.819Z,42.38
2023-04-24T06:01:40.070Z,42.41
2023-04-24T06:02:18.691Z,42.50
2023-04-24T06:02:51.761Z,42.56
2023-04-24T06:03:27.254Z,42.74
2023-04-24T06:03:59.846Z,42.67
2023-04-24T06:04:33.098Z,42.81
2023-04-24T06:05:09.641Z,42.79
2023-04-24T06:05:42.035Z,42.55
2023-04-24T06:06:15.190Z,42.53
2023-04-24T06:06:52.004Z,42.86
2023-04-24T06:07:24.657Z,42.82
2023-04-24T06:07:59.873Z,42.60
2023-04-24T06:08:37.650Z,43.06
2023-04-24T06:09:13.341Z,42.70
2023-04-24T06:09:45.839Z,42.63
2023-04-24T06:10:18.420Z,42.79
2023-04-24T06:10:53.626Z,42.88
2023-04-24T06:11:27.758Z,43.08
2023-04-24T06:12:03.758Z,43.11
2023-04-24T06:12:52.469Z,42.71
2023-04-24T06:13:25.694Z,42.91
2023-04-24T06:14:29.609Z,42.73
2023-04-24T06:15:22.686Z,42.81
2023-04-24T06:16:05.111Z,42.91
2023-04-24T06:16:43.278Z,43.25
2023-04-24T06:17:28.488Z,42.79
2023-04-24T06:18:01.062Z,42.84
2023-04-24T06:18:33.572Z,43.13
2023-04-24T06:19:08.582Z,43.17
2023-04-24T06:19:42.104Z,43.00
2023-04-24T06:20:15.015Z,43.31
2023-04-24T06:20:50.914Z,42.87
2023-04-24T06:21:23.278Z,42.89
2023-04-24T06:21:56.604Z,43.39
2023-04-24T06:22:32.311Z,43.20
2023-04-24T06:23:04.675Z,43.32
2023-04-24T06:23:40.249Z,43.16
2023-04-24T06:24:15.224Z,43.18
2023-04-24T06:24:49.510Z,42.91
2023-04-24T06:25:22.072Z,43.08
2023-04-24T06:25:59.313Z,43.08
2023-04-24T06:26:31.889Z,42.86
2023-04-24T06:27:10.066Z,43.11
2023-04-24T06:27:42.416Z,43.05
2023-04-24T06:28:14.836Z,42.84
2023-04-24T06:28:50.537Z,42.84
2023-04-24T06:29:22.881Z,42.84
2023-04-24T06:29:59.189Z,43.11
2023-04-24T06:30:31.846Z,42.82
2023-04-24T06:31:04.246Z,43.14
2023-04-24T06:31:39.220Z,43.01
2023-04-24T06:32:11.658Z,43.04
2023-04-24T06:32:46.761Z,43.15
2023-04-24T06:33:23.688Z,42.93
2023-04-24T06:33:56.352Z,43.23
2023-04-24T06:34:31.988Z,42.89
2023-04-24T06:35:05.319Z,42.95
2023-04-24T06:35:39.177Z,43.19
2023-04-24T06:36:14.541Z,43.19
2023-04-24T06:36:48.268Z,43.26
2023-04-24T06:37:20.760Z,43.20
2023-04-24T06:37:57.288Z,43.04
2023-04-24T06:38:30.902Z,43.11
2023-04-24T06:39:03.305Z,43.16
2023-04-24T06:39:38.507Z,43.31
2023-04-24T06:40:11.678Z,42.79
2023-04-24T06:40:46.667Z,42.97
2023-04-24T06:41:19.005Z,43.31
2023-04-24T06:41:53.977Z,42.80
2023-04-24T06:42:29.133Z,42.75
2023-04-24T06:43:03.910Z,43.13
2023-04-24T06:43:38.884Z,42.99
2023-04-24T06:44:11.439Z,42.88
2023-04-24T06:44:46.550Z,43.37
2023-04-24T06:45:19.008Z,43.11
2023-04-24T06:45:54.230Z,42.95
2023-04-24T06:46:27.517Z,43.18
2023-04-24T06:47:02.568Z,43.32
2023-04-24T06:47:34.934Z,42.87
2023-04-24T06:48:07.499Z,43.04
2023-04-24T06:48:43.218Z,43.09
2023-04-24T06:49:17.281Z,43.09
2023-04-24T06:49:53.667Z,43.34
2023-04-24T06:50:26.317Z,43.17
2023-04-24T06:50:58.694Z,43.09
2023-04-24T06:51:34.204Z,43.06
2023-04-24T06:52:06.806Z,43.08
2023-04-24T06:52:39.145Z,43.22
2023-04-24T06:53:15.594Z,43.21
2023-04-24T06:53:49.166Z,43.16
2023-04-24T06:54:22.051Z,43.06
2023-04-24T06:54:57.006Z,42.95
2023-04-24T06:55:29.647Z,43.08
2023-04-24T06:56:05.302Z,42.86
2023-04-24T06:56:37.709Z,43.23
2023-04-24T06:57:11.580Z,43.06
2023-04-24T06:57:49.304Z,43.09
2023-04-24T06:58:21.896Z,42.85
2023-04-24T06:58:54.743Z,43.16
2023-04-24T06:59:29.665Z,43.04
2023-04-24T07:00:02.143Z,43.14
2023-04-24T07:00:34.508Z,43.03
2023-04-24T07:01:09.484Z,43.28
2023-04-24T07:01:41.877Z,43.33
2023-04-24T07:02:16.928Z,42.87
2023-04-24T07:02:49.530Z,43.28
2023-04-24T07:03:24.780Z,43.27
2023-04-24T07:03:57.372Z,42.86
2023-04-24T07:04:30.082Z,43.04
2023-04-24T07:05:05.265Z,43.13
2023-04-24T07:05:38.315Z,43.06
2023-04-24T07:06:11.421Z,43.25
2023-04-24T07:06:47.053Z,42.96
2023-04-24T07:07:19.433Z,42.89
2023-04-24T07:07:54.422Z,42.82
2023-04-24T07:08:26.794Z,42.84
2023-04-24T07:09:02.965Z,43.01
2023-04-24T07:09:36.503Z,42.98
2023-04-24T07:10:12.628Z,43.00
2023-04-24T07:10:46.130Z,42.95
2023-04-24T07:11:18.482Z,42.84
2023-04-24T07:11:54.068Z,42.87
2023-04-24T07:12:26.561Z,43.18
2023-04-24T07:13:04.099Z,42.78
2023-04-24T07:13:36.790Z,43.08
2023-04-24T07:14:09.227Z,42.90
2023-04-24T07:14:44.382Z,43.13
2023-04-24T07:15:17.437Z,43.09
2023-04-24T07:15:51.639Z,43.20
2023-04-24T07:16:27.027Z,42.86
2023-04-24T07:16:59.465Z,43.18
2023-04-24T07:17:31.874Z,43.14
2023-04-24T07:18:07.094Z,43.05
2023-04-24T07:18:41.041Z,43.15
2023-04-24T07:19:13.567Z,43.32
2023-04-24T07:19:48.561Z,43.25
2023-04-24T07:20:20.999Z,42.91
2023-04-24T07:20:56.069Z,43.12
2023-04-24T07:21:29.081Z,42.81
2023-04-24T07:22:04.778Z,42.68
2023-04-24T07:22:37.195Z,42.73
2023-04-24T07:23:12.366Z,42.96
2023-04-24T07:23:44.736Z,42.68
2023-04-24T07:24:22.051Z,42.75
2023-04-24T07:24:55.012Z,42.94
2023-04-24T07:25:29.994Z,42.65
2023-04-24T07:26:02.346Z,42.89
2023-04-24T07:26:34.724Z,42.67
2023-04-24T07:27:09.675Z,43.17
2023-04-24T07:27:42.064Z,43.00
2023-04-24T07:28:18.774Z,43.15
2023-04-24T07:28:53.740Z,42.74
2023-04-24T07:29:26.098Z,43.20
2023-04-24T07:29:58.534Z,42.77